Time;durP1;ratioP1;P1;durP2;ratioP2;P2;SDS_P1;SDS_P2;PMS_P1;PMS_P2;Temp;Humidity;BMP_temperature;BMP_pressure;BME280_temperature;BME280_humidity;BME280_pressure;Samples;Min_cycle;Max_cycle;Signal;HPM_P1;HPM_P2
2023/07/15 00:02:15;;;;;;;2.78;2.33;;;;;;;21.56;45.13;95212.16;4931082;29;20205;-85
2023/07/15 00:04:41;;;;;;;5.65;2.65;;;;;;;21.60;45.11;95215.13;4932463;29;20182;-85
2023/07/15 00:07:06;;;;;;;4.03;2.13;;;;;;;21.68;44.82;95215.63;4931834;29;20299;-85
2023/07/15 00:09:35;;;;;;;3.33;2.30;;;;;;;21.72;44.53;95211.50;4930599;29;20198;-85
2023/07/15 00:12:00;;;;;;;5.43;2.40;;;;;;;21.74;44.81;95212.09;4933354;28;20206;-84
2023/07/15 00:14:28;;;;;;;3.15;2.40;;;;;;;21.74;44.63;95217.38;4998581;28;20217;-82
2023/07/15 00:16:53;;;;;;;3.03;2.40;;;;;;;21.69;44.56;95206.66;4933999;29;20217;-84
2023/07/15 00:19:19;;;;;;;3.50;2.30;;;;;;;21.65;44.79;95202.06;4940007;28;20194;-83
2023/07/15 00:21:45;;;;;;;2.08;1.88;;;;;;;21.65;44.65;95208.16;4924009;28;20183;-83
2023/07/15 00:24:10;;;;;;;2.40;2.20;;;;;;;21.60;44.43;95210.66;4917943;28;20202;-83
2023/07/15 00:26:36;;;;;;;2.58;2.10;;;;;;;21.66;44.29;95209.78;4932885;28;20210;-83
2023/07/15 00:29:03;;;;;;;3.05;2.35;;;;;;;21.65;44.32;95202.88;4933783;29;20198;-82
2023/07/15 00:31:30;;;;;;;2.65;2.45;;;;;;;21.69;44.13;95201.38;4932603;28;20206;-84
2023/07/15 00:33:56;;;;;;;1.95;1.85;;;;;;;21.75;43.49;95205.78;4925811;28;20246;-84
2023/07/15 00:36:22;;;;;;;2.88;2.30;;;;;;;21.93;43.21;95206.75;4933683;29;20297;-84
2023/07/15 00:38:48;;;;;;;2.20;2.00;;;;;;;22.00;42.62;95210.09;5000221;28;20191;-82
2023/07/15 00:41:22;;;;;;;3.35;2.10;;;;;;;22.18;42.41;95203.97;4928042;29;20178;-84
2023/07/15 00:43:58;;;;;;;2.88;2.13;;;;;;;22.22;42.01;95207.75;4919058;29;20293;-83
2023/07/15 00:46:28;;;;;;;6.05;2.00;;;;;;;22.24;41.91;95213.59;4937575;28;20237;-83
2023/07/15 00:49:20;;;;;;;3.13;2.05;;;;;;;22.36;41.36;95213.63;4930157;29;20198;-84
2023/07/15 00:51:48;;;;;;;2.83;2.20;;;;;;;22.39;41.00;95206.03;4941309;28;20199;-83
2023/07/15 00:54:14;;;;;;;3.35;2.15;;;;;;;22.47;41.18;95208.34;4930602;28;20186;-83
2023/07/15 00:56:40;;;;;;;3.75;2.00;;;;;;;22.45;40.84;95207.78;4931933;28;20642;-83
2023/07/15 00:59:06;;;;;;;2.40;2.05;;;;;;;22.52;40.65;95205.00;4932893;28;20281;-83
2023/07/15 01:01:32;;;;;;;1.92;1.80;;;;;;;22.48;40.77;95206.50;4934009;29;20656;-84
2023/07/15 01:03:57;;;;;;;3.22;1.88;;;;;;;22.49;41.08;95208.91;4932565;29;20186;-84
2023/07/15 01:06:23;;;;;;;4.65;2.00;;;;;;;22.46;40.69;95213.88;4933744;29;20336;-82
2023/07/15 01:08:49;;;;;;;2.03;1.90;;;;;;;22.44;40.78;95216.75;4931375;28;20269;-82
2023/07/15 01:11:14;;;;;;;3.95;1.75;;;;;;;22.49;40.54;95223.97;4915436;29;20250;-84
2023/07/15 01:13:39;;;;;;;2.22;1.95;;;;;;;22.50;40.68;95215.81;4930260;29;20550;-84
2023/07/15 01:16:05;;;;;;;2.35;1.80;;;;;;;22.37;40.86;95221.34;4931320;28;20723;-84
2023/07/15 01:18:31;;;;;;;2.00;1.65;;;;;;;22.38;40.67;95215.00;4932472;28;20559;-84
2023/07/15 01:20:58;;;;;;;2.33;1.85;;;;;;;22.38;40.96;95216.84;4940091;28;20235;-84
2023/07/15 01:23:24;;;;;;;3.55;1.60;;;;;;;22.45;40.40;95207.78;4930279;29;20193;-82
2023/07/15 01:25:49;;;;;;;1.80;1.55;;;;;;;22.58;39.46;95209.38;4928595;29;20272;-84
2023/07/15 01:28:15;;;;;;;3.08;1.70;;;;;;;22.70;39.10;95207.53;4929199;28;20194;-84
2023/07/15 01:30:40;;;;;;;4.28;1.67;;;;;;;22.73;39.41;95212.38;4997929;28;20267;-84
2023/07/15 01:33:05;;;;;;;2.90;1.60;;;;;;;22.71;39.37;95217.09;4931109;29;20217;-85
2023/07/15 01:35:30;;;;;;;4.13;1.88;;;;;;;22.81;39.25;95214.66;4939362;29;20275;-83
2023/07/15 01:37:56;;;;;;;3.90;1.70;;;;;;;22.73;39.15;95215.03;4932661;29;20301;-84
2023/07/15 01:40:21;;;;;;;1.70;1.60;;;;;;;22.80;38.87;95210.41;4916628;29;20197;-82
2023/07/15 01:42:46;;;;;;;2.72;1.45;;;;;;;22.81;39.00;95211.22;4930470;29;20217;-83
2023/07/15 01:45:12;;;;;;;2.70;2.20;;;;;;;22.81;39.22;95206.72;4930545;29;20202;-83
2023/07/15 01:47:37;;;;;;;1.50;1.40;;;;;;;22.76;39.44;95203.16;4938544;29;20214;-83
2023/07/15 01:50:05;;;;;;;2.42;1.65;;;;;;;22.68;39.63;95203.50;4928998;29;20224;-83
2023/07/15 01:52:30;;;;;;;2.17;1.98;;;;;;;22.59;39.68;95203.84;4929485;28;20232;-83
2023/07/15 01:54:56;;;;;;;3.10;2.10;;;;;;;22.51;40.38;95200.75;4930067;29;20727;-82
2023/07/15 01:57:21;;;;;;;2.47;1.55;;;;;;;22.48;40.65;95201.22;4931431;29;20218;-82
2023/07/15 01:59:46;;;;;;;2.08;1.70;;;;;;;22.37;40.93;95192.25;4925141;28;20660;-84
2023/07/15 02:02:11;;;;;;;2.08;1.88;;;;;;;22.28;41.19;95202.34;4934644;28;20697;-82
2023/07/15 02:04:37;;;;;;;2.92;2.10;;;;;;;22.11;41.74;95196.13;4932637;29;20186;-82
2023/07/15 02:07:02;;;;;;;2.15;1.70;;;;;;;22.04;41.89;95195.38;4933644;28;20240;-83
2023/07/15 02:09:28;;;;;;;2.55;2.05;;;;;;;22.00;41.79;95194.25;4934357;28;20194;-84
2023/07/15 02:11:54;;;;;;;2.15;1.80;;;;;;;21.87;42.07;95183.84;4944593;29;20210;-83
2023/07/15 02:14:19;;;;;;;2.28;1.80;;;;;;;21.83;42.03;95190.63;4930897;29;20190;-82
2023/07/15 02:16:44;;;;;;;1.80;1.60;;;;;;;21.78;41.96;95186.00;4947718;28;20256;-83
2023/07/15 02:19:10;;;;;;;2.17;1.90;;;;;;;21.76;42.21;95183.59;4932818;29;20225;-83
2023/07/15 02:21:36;;;;;;;2.85;1.80;;;;;;;21.84;42.18;95184.31;4931004;28;20222;-82
2023/07/15 02:24:01;;;;;;;4.47;2.60;;;;;;;21.83;42.39;95182.72;4935370;28;20633;-84
2023/07/15 02:26:27;;;;;;;3.85;1.75;;;;;;;21.77;42.74;95181.75;4933407;29;20211;-83
2023/07/15 02:28:53;;;;;;;2.47;1.83;;;;;;;21.68;42.94;95183.13;4948536;29;20186;-83
2023/07/15 02:31:18;;;;;;;2.03;1.92;;;;;;;21.51;43.27;95185.59;4932452;29;20802;-84
2023/07/15 02:33:44;;;;;;;2.40;1.88;;;;;;;21.59;43.49;95177.34;4934584;28;20227;-83
2023/07/15 02:36:09;;;;;;;4.18;1.92;;;;;;;21.54;43.28;95177.19;4939620;29;20233;-84
2023/07/15 02:38:35;;;;;;;3.15;1.92;;;;;;;21.49;43.39;95177.09;4931768;29;20273;-84
2023/07/15 02:41:00;;;;;;;2.25;2.00;;;;;;;21.35;43.87;95175.63;4932476;28;20280;-83
2023/07/15 02:43:25;;;;;;;3.72;1.83;;;;;;;21.42;43.88;95171.09;4932113;28;20754;-82
2023/07/15 02:45:51;;;;;;;3.45;1.98;;;;;;;21.37;44.54;95170.94;4933363;28;20214;-83
2023/07/15 02:48:16;;;;;;;2.25;1.85;;;;;;;21.27;44.82;95176.75;4932766;29;20197;-82
2023/07/15 02:50:42;;;;;;;2.17;1.98;;;;;;;21.27;44.56;95174.09;4931869;29;20198;-82
2023/07/15 02:53:07;;;;;;;2.05;1.85;;;;;;;21.27;44.47;95170.66;4932353;29;20221;-85
2023/07/15 02:55:32;;;;;;;2.30;2.03;;;;;;;21.24;44.60;95174.53;4936523;28;20286;-83
2023/07/15 02:57:58;;;;;;;2.33;2.00;;;;;;;21.16;44.09;95172.19;4933778;28;20195;-83
2023/07/15 03:00:23;;;;;;;4.88;1.80;;;;;;;21.26;44.04;95169.03;4932869;28;20261;-82
2023/07/15 03:02:49;;;;;;;2.13;1.92;;;;;;;21.25;43.76;95170.88;4923332;29;20178;-83
2023/07/15 03:05:15;;;;;;;3.65;2.33;;;;;;;21.31;43.60;95167.38;4933079;28;20210;-81
2023/07/15 03:07:45;;;;;;;2.97;1.80;;;;;;;21.32;43.75;95176.09;4943609;28;20218;-83
2023/07/15 03:10:14;;;;;;;2.47;2.03;;;;;;;21.37;43.54;95165.66;4931391;28;20663;-82
2023/07/15 03:12:40;;;;;;;3.50;2.05;;;;;;;21.30;43.82;95163.13;4999405;28;20218;-82
2023/07/15 03:15:06;;;;;;;2.55;2.05;;;;;;;21.30;43.83;95165.75;4939576;29;20672;-83
2023/07/15 03:17:35;;;;;;;3.00;2.00;;;;;;;21.27;43.93;95162.75;4947145;28;20216;-83
2023/07/15 03:20:14;;;;;;;2.25;2.05;;;;;;;21.28;43.95;95173.06;4927260;28;20192;-84
2023/07/15 03:22:43;;;;;;;2.35;1.95;;;;;;;21.30;43.81;95170.25;4932701;29;20560;-83
2023/07/15 03:25:09;;;;;;;4.30;2.35;;;;;;;21.28;43.91;95173.06;4949531;28;20241;-82
2023/07/15 03:27:35;;;;;;;3.42;2.00;;;;;;;21.25;43.85;95167.41;4928200;28;20210;-83
2023/07/15 03:30:00;;;;;;;3.00;2.00;;;;;;;21.26;43.91;95167.19;4936670;28;20308;-83
2023/07/15 03:32:26;;;;;;;2.25;1.80;;;;;;;21.23;43.79;95167.66;4935722;28;20206;-84
2023/07/15 03:34:51;;;;;;;3.05;1.95;;;;;;;21.32;43.58;95160.25;4935600;28;21079;-84
2023/07/15 03:37:17;;;;;;;2.95;1.98;;;;;;;21.27;43.83;95163.53;4934434;29;20687;-82
2023/07/15 03:39:42;;;;;;;3.17;1.83;;;;;;;21.24;43.91;95161.34;4932985;29;20198;-83
2023/07/15 03:42:07;;;;;;;2.40;2.00;;;;;;;21.34;43.48;95163.47;4934876;29;20189;-84
2023/07/15 03:44:32;;;;;;;1.90;1.80;;;;;;;21.34;43.36;95163.47;4935727;29;20229;-83
2023/07/15 03:46:58;;;;;;;2.42;1.95;;;;;;;21.37;43.61;95150.59;4935435;28;20228;-83
2023/07/15 03:49:24;;;;;;;3.38;2.30;;;;;;;21.48;43.51;95154.34;4934565;28;20619;-83
2023/07/15 03:51:49;;;;;;;2.22;2.00;;;;;;;21.51;42.92;95150.44;4924426;29;20277;-83
2023/07/15 03:54:15;;;;;;;2.95;1.75;;;;;;;21.49;43.12;95155.94;4930450;28;20652;-83
2023/07/15 03:56:41;;;;;;;2.08;1.70;;;;;;;21.67;42.52;95147.97;4932478;29;20211;-84
2023/07/15 03:59:06;;;;;;;1.80;1.60;;;;;;;21.70;42.54;95146.69;5000183;28;20211;-83
2023/07/15 04:01:34;;;;;;;2.75;2.20;;;;;;;21.85;42.50;95151.56;4934129;29;20192;-82
2023/07/15 04:04:04;;;;;;;3.25;2.05;;;;;;;22.71;40.70;95147.47;4932165;29;20273;-84
2023/07/15 04:06:31;;;;;;;3.03;1.90;;;;;;;24.12;38.07;95153.84;4930789;28;20229;-82
2023/07/15 04:08:57;;;;;;;2.42;1.77;;;;;;;25.55;35.23;95139.78;4931807;29;20194;-82
2023/07/15 04:11:22;;;;;;;5.00;2.28;;;;;;;26.64;32.75;95142.03;5008539;28;20778;-83
2023/07/15 04:13:47;;;;;;;2.15;1.70;;;;;;;27.02;31.99;95145.41;4931774;29;20200;-83
2023/07/15 04:16:13;;;;;;;4.80;1.90;;;;;;;28.25;29.95;95143.81;4998013;28;20300;-83
2023/07/15 04:18:39;;;;;;;3.60;1.90;;;;;;;29.18;28.99;95146.06;4932390;28;20195;-84
2023/07/15 04:21:04;;;;;;;2.03;1.80;;;;;;;29.81;27.34;95139.03;4931647;29;20244;-84
2023/07/15 04:23:29;;;;;;;2.35;1.70;;;;;;;30.56;26.76;95148.63;4930468;29;20187;-83
2023/07/15 04:25:54;;;;;;;2.53;1.67;;;;;;;29.40;28.35;95146.47;4931845;28;20214;-85
2023/07/15 04:28:20;;;;;;;2.88;1.70;;;;;;;28.06;29.87;95146.22;4931226;29;20193;-84
2023/07/15 04:30:45;;;;;;;3.97;1.80;;;;;;;27.20;31.11;95139.63;4926192;29;20277;-84
2023/07/15 04:33:11;;;;;;;2.03;1.83;;;;;;;26.21;33.26;95141.19;4945491;28;20217;-83
2023/07/15 04:35:37;;;;;;;4.22;1.83;;;;;;;27.71;30.75;95149.66;4995931;28;20256;-84
2023/07/15 04:38:02;;;;;;;2.75;1.85;;;;;;;29.30;28.46;95149.19;4931366;29;20197;-83
2023/07/15 04:40:28;;;;;;;1.83;1.60;;;;;;;29.74;28.01;95149.25;4929994;29;20215;-83
2023/07/15 04:42:53;;;;;;;2.28;1.73;;;;;;;31.42;25.78;95157.63;4928693;29;20186;-84
2023/07/15 04:45:18;;;;;;;1.83;1.65;;;;;;;32.52;23.93;95158.19;4930756;29;20190;-84
2023/07/15 04:47:44;;;;;;;3.08;2.13;;;;;;;33.99;22.49;95159.84;4931617;28;20559;-84
2023/07/15 04:50:09;;;;;;;2.30;1.63;;;;;;;34.99;21.25;95163.03;4930390;28;20253;-84
2023/07/15 04:52:34;;;;;;;7.13;2.10;;;;;;;34.15;22.75;95158.38;4928767;29;20218;-84
2023/07/15 04:55:00;;;;;;;2.33;2.00;;;;;;;35.12;21.30;95159.44;4929531;29;20206;-83
2023/07/15 04:57:25;;;;;;;2.83;1.98;;;;;;;35.12;21.09;95164.81;4930463;29;20264;-84
2023/07/15 04:59:52;;;;;;;2.28;1.70;;;;;;;36.51;19.33;95167.72;4937593;28;20193;-84
2023/07/15 05:02:17;;;;;;;3.75;1.98;;;;;;;36.76;19.07;95176.88;4942293;29;20190;-83
2023/07/15 05:04:43;;;;;;;2.30;2.10;;;;;;;36.34;19.70;95171.22;4942017;29;20722;-84
2023/07/15 05:07:08;;;;;;;1.88;1.77;;;;;;;36.43;19.49;95171.22;4928507;28;20214;-84
2023/07/15 05:09:33;;;;;;;2.75;2.20;;;;;;;36.68;19.54;95178.50;4929584;29;20245;-84
2023/07/15 05:11:58;;;;;;;3.13;1.60;;;;;;;37.01;19.33;95183.34;4929107;28;20253;-84
2023/07/15 05:14:24;;;;;;;2.20;2.00;;;;;;;37.37;18.82;95182.88;4931160;28;20278;-85
2023/07/15 05:16:49;;;;;;;2.75;1.80;;;;;;;36.24;19.96;95177.75;4928591;28;20209;-84
2023/07/15 05:19:14;;;;;;;3.40;2.03;;;;;;;36.45;20.18;95174.41;4922455;29;20282;-84
2023/07/15 05:21:40;;;;;;;2.47;2.05;;;;;;;35.85;20.89;95169.75;4930049;29;20614;-84
2023/07/15 05:24:06;;;;;;;4.97;2.08;;;;;;;36.37;20.04;95177.91;4994615;28;20678;-83
2023/07/15 05:26:31;;;;;;;2.08;1.80;;;;;;;36.68;19.99;95180.41;4927449;29;20313;-85
2023/07/15 05:28:57;;;;;;;2.78;2.40;;;;;;;35.83;20.88;95186.28;4928293;28;20277;-84
2023/07/15 05:31:22;;;;;;;2.35;1.92;;;;;;;36.29;20.44;95185.69;4936510;29;20288;-83
2023/07/15 05:33:47;;;;;;;2.63;2.10;;;;;;;36.18;20.47;95184.41;4944575;28;20273;-84
2023/07/15 05:36:14;;;;;;;6.72;2.28;;;;;;;35.58;21.04;95187.84;4934420;29;20205;-84
2023/07/15 05:38:43;;;;;;;2.13;1.90;;;;;;;38.13;19.00;95184.63;4934459;28;20236;-84
2023/07/15 05:41:10;;;;;;;4.20;2.10;;;;;;;37.65;19.16;95186.72;4931848;29;20826;-84
2023/07/15 05:43:35;;;;;;;2.50;2.05;;;;;;;38.73;18.44;95176.00;4928469;28;20614;-84
2023/07/15 05:46:01;;;;;;;2.33;2.03;;;;;;;38.92;18.50;95177.38;4935940;28;20210;-83
2023/07/15 05:48:26;;;;;;;2.47;2.28;;;;;;;38.12;18.35;95173.00;4934809;28;20200;-84
2023/07/15 05:50:51;;;;;;;2.45;2.25;;;;;;;37.73;19.52;95163.41;4933452;28;20197;-83
2023/07/15 05:53:17;;;;;;;3.92;2.10;;;;;;;37.88;18.95;95154.69;4934542;28;20260;-84
2023/07/15 05:55:42;;;;;;;3.72;2.17;;;;;;;38.65;18.91;95160.56;4933686;29;20197;-83
2023/07/15 05:58:09;;;;;;;1.90;1.80;;;;;;;38.60;19.11;95166.19;4948067;28;20190;-84
2023/07/15 06:00:37;;;;;;;3.05;2.15;;;;;;;37.27;20.13;95165.06;4935903;29;20285;-84
2023/07/15 06:03:03;;;;;;;2.78;2.00;;;;;;;37.49;20.02;95163.25;4940348;28;20241;-84
2023/07/15 06:05:29;;;;;;;2.88;2.20;;;;;;;37.84;19.98;95155.72;4936364;28;20229;-85
2023/07/15 06:07:54;;;;;;;4.32;2.28;;;;;;;38.03;19.86;95156.03;4935447;29;20242;-84
2023/07/15 06:10:19;;;;;;;2.47;2.25;;;;;;;38.68;18.64;95161.84;4933562;28;20238;-85
2023/07/15 06:12:45;;;;;;;3.42;2.33;;;;;;;35.79;22.00;95157.53;4921540;29;20210;-84
2023/07/15 06:15:10;;;;;;;2.13;1.92;;;;;;;32.91;24.98;95147.78;4936254;28;20186;-84
2023/07/15 06:17:35;;;;;;;2.35;2.15;;;;;;;31.31;27.56;95148.13;4934929;29;20206;-83
2023/07/15 06:20:01;;;;;;;6.32;2.08;;;;;;;33.02;25.42;95147.59;4935336;28;20194;-83
2023/07/15 06:22:26;;;;;;;3.10;2.20;;;;;;;31.96;27.35;95140.25;4936115;28;20190;-83
2023/07/15 06:24:51;;;;;;;2.30;2.10;;;;;;;32.66;25.95;95145.53;4951309;28;20193;-82
2023/07/15 06:27:17;;;;;;;2.60;2.13;;;;;;;33.75;24.97;95135.88;4935874;29;20213;-83
2023/07/15 06:29:43;;;;;;;4.18;2.40;;;;;;;34.60;24.26;95145.69;4936593;29;20198;-84
2023/07/15 06:32:09;;;;;;;2.30;2.10;;;;;;;34.49;23.52;95149.75;4934932;29;20210;-82
2023/07/15 06:34:34;;;;;;;2.83;1.73;;;;;;;34.92;23.66;95154.59;4933692;29;20609;-83
2023/07/15 06:37:00;;;;;;;2.30;2.10;;;;;;;33.61;25.16;95149.34;4936731;29;20206;-82
2023/07/15 06:39:25;;;;;;;2.47;2.28;;;;;;;34.53;23.67;95158.00;4943227;28;20186;-83
2023/07/15 06:41:51;;;;;;;2.33;2.13;;;;;;;34.81;23.76;95156.75;4934092;29;20177;-83
2023/07/15 06:44:16;;;;;;;2.42;2.22;;;;;;;35.39;23.02;95146.81;5003061;28;20190;-83
2023/07/15 06:46:41;;;;;;;2.80;2.60;;;;;;;36.12;22.95;95147.06;4938455;28;20227;-82
2023/07/15 06:49:07;;;;;;;4.18;2.75;;;;;;;35.23;23.39;95156.44;4935918;28;20182;-83
2023/07/15 06:51:32;;;;;;;2.97;2.67;;;;;;;33.23;25.43;95159.56;4932709;28;20704;-83
2023/07/15 06:53:57;;;;;;;2.33;2.13;;;;;;;35.16;23.73;95163.09;4947809;29;20197;-82
2023/07/15 06:56:23;;;;;;;6.05;2.40;;;;;;;35.31;23.73;95155.66;4932354;29;20218;-82
2023/07/15 06:58:48;;;;;;;2.72;2.53;;;;;;;35.71;23.53;95165.31;4938971;28;20275;-83
2023/07/15 07:01:13;;;;;;;3.63;2.83;;;;;;;36.23;22.85;95165.34;4933002;28;20185;-83
2023/07/15 07:03:39;;;;;;;2.78;2.58;;;;;;;36.04;23.19;95162.94;4931993;29;20197;-82
2023/07/15 07:06:04;;;;;;;4.05;2.85;;;;;;;36.75;22.41;95170.66;4931711;29;20222;-82
2023/07/15 07:08:29;;;;;;;3.30;2.47;;;;;;;36.81;22.57;95169.38;4917579;28;20190;-83
2023/07/15 07:10:55;;;;;;;3.75;2.40;;;;;;;36.56;22.91;95167.53;4932595;29;20655;-83
2023/07/15 07:13:20;;;;;;;3.83;2.30;;;;;;;36.88;22.83;95162.72;4932251;28;20218;-82
2023/07/15 07:15:47;;;;;;;4.07;2.72;;;;;;;37.17;23.22;95161.94;4931047;29;20244;-83
2023/07/15 07:18:12;;;;;;;4.38;3.13;;;;;;;36.88;23.02;95162.72;4920935;28;20186;-82
2023/07/15 07:20:38;;;;;;;3.42;2.55;;;;;;;37.25;22.65;95161.09;4931662;28;20607;-83
2023/07/15 07:23:04;;;;;;;3.90;2.60;;;;;;;35.99;24.18;95159.63;4933030;28;20198;-83
2023/07/15 07:25:29;;;;;;;4.30;2.80;;;;;;;35.64;24.68;95164.19;4947241;29;20235;-83
2023/07/15 07:27:54;;;;;;;5.07;3.20;;;;;;;35.10;25.41;95167.03;4943475;29;20209;-82
2023/07/15 07:30:20;;;;;;;5.57;2.83;;;;;;;33.66;27.26;95162.72;4930697;29;20190;-83
2023/07/15 07:32:45;;;;;;;3.25;2.65;;;;;;;32.79;28.61;95165.50;4933327;28;20222;-82
2023/07/15 07:35:11;;;;;;;2.97;2.67;;;;;;;32.20;29.45;95158.94;4933223;29;20239;-80
2023/07/15 07:37:36;;;;;;;2.88;2.67;;;;;;;32.18;29.50;95172.69;5000932;28;20221;-81
2023/07/15 07:40:01;;;;;;;3.40;3.00;;;;;;;32.65;29.61;95170.84;4931283;28;20201;-81
2023/07/15 07:42:27;;;;;;;5.10;2.75;;;;;;;32.92;29.52;95170.91;4931535;29;20189;-80
2023/07/15 07:44:54;;;;;;;2.90;2.70;;;;;;;33.15;29.21;95165.63;4931171;29;20749;-80
2023/07/15 07:47:20;;;;;;;5.25;3.00;;;;;;;34.46;27.20;95163.84;5007747;28;20256;-78
2023/07/15 07:49:45;;;;;;;3.50;2.97;;;;;;;34.42;27.36;95165.56;4917852;29;20187;-78
2023/07/15 07:52:10;;;;;;;8.15;2.90;;;;;;;34.29;27.78;95159.13;4932052;29;20710;-78
2023/07/15 07:54:35;;;;;;;3.67;3.30;;;;;;;32.58;30.35;95165.84;4924249;29;20193;-79
2023/07/15 07:57:01;;;;;;;5.32;2.90;;;;;;;32.04;30.77;95159.19;4929701;28;20212;-79
2023/07/15 07:59:27;;;;;;;3.38;3.08;;;;;;;31.40;31.81;95163.28;4940114;28;20679;-78
2023/07/15 08:01:52;;;;;;;3.80;2.85;;;;;;;30.80;32.72;95175.47;4917362;28;20264;-79
2023/07/15 08:04:17;;;;;;;10.02;3.58;;;;;;;30.54;33.49;95169.53;4922210;29;20188;-79
2023/07/15 08:06:42;;;;;;;3.25;3.05;;;;;;;30.03;34.42;95162.69;4936512;29;20672;-79
2023/07/15 08:09:08;;;;;;;2.85;2.53;;;;;;;30.32;33.68;95167.34;4915424;29;20233;-79
2023/07/15 08:11:33;;;;;;;4.35;2.90;;;;;;;30.26;34.20;95163.09;4929785;28;20238;-78
2023/07/15 08:13:59;;;;;;;2.90;2.63;;;;;;;30.44;34.22;95168.56;4925800;28;20269;-79
2023/07/15 08:16:29;;;;;;;5.45;3.10;;;;;;;30.69;33.44;95164.88;4929574;29;20213;-83
2023/07/15 08:18:56;;;;;;;7.07;3.20;;;;;;;31.06;33.03;95162.59;4935334;29;20195;-82
2023/07/15 08:21:21;;;;;;;5.65;2.80;;;;;;;32.03;32.33;95170.22;4925323;28;20198;-82
2023/07/15 08:23:50;;;;;;;5.80;2.78;;;;;;;31.29;32.79;95172.56;4940215;29;20209;-83
2023/07/15 08:26:15;;;;;;;3.40;2.75;;;;;;;31.33;32.93;95178.13;4934375;28;20573;-82
2023/07/15 08:28:40;;;;;;;3.25;3.05;;;;;;;31.25;32.89;95183.03;4930525;29;20190;-82
2023/07/15 08:31:06;;;;;;;5.25;3.42;;;;;;;31.10;32.58;95180.53;4995905;28;20248;-82
2023/07/15 08:33:31;;;;;;;4.70;3.38;;;;;;;30.41;34.38;95195.13;4947340;28;20312;-83
2023/07/15 08:35:56;;;;;;;3.97;2.58;;;;;;;30.44;34.52;95195.34;4936724;28;20256;-83
2023/07/15 08:38:22;;;;;;;3.72;2.65;;;;;;;30.48;33.45;95187.56;5027194;28;20225;-82
2023/07/15 08:40:48;;;;;;;4.32;3.08;;;;;;;30.68;33.26;95190.06;5016279;28;20186;-82
2023/07/15 08:43:14;;;;;;;3.17;2.88;;;;;;;31.33;32.52;95189.66;5014953;28;20240;-82
2023/07/15 08:45:39;;;;;;;3.20;2.78;;;;;;;31.66;32.56;95177.16;4948887;28;20177;-82
2023/07/15 08:48:06;;;;;;;3.30;2.80;;;;;;;31.86;31.71;95176.09;4947919;28;20205;-83
2023/07/15 08:50:34;;;;;;;3.47;3.17;;;;;;;31.98;31.99;95181.03;4948544;28;20688;-82
2023/07/15 08:53:01;;;;;;;3.08;2.78;;;;;;;32.00;31.82;95174.28;4946971;29;20214;-83
2023/07/15 08:55:29;;;;;;;3.30;3.00;;;;;;;31.98;31.86;95184.53;4947382;28;20687;-82
2023/07/15 08:57:55;;;;;;;4.50;2.63;;;;;;;32.58;31.22;95181.16;4946640;28;20260;-82
2023/07/15 09:00:20;;;;;;;3.80;3.00;;;;;;;32.79;31.28;95177.03;4935272;28;20596;-82
2023/07/15 09:02:46;;;;;;;3.95;3.05;;;;;;;32.12;31.32;95176.53;4948408;28;20185;-83
2023/07/15 09:05:11;;;;;;;2.90;2.70;;;;;;;32.59;30.54;95182.75;4931311;29;20260;-82
2023/07/15 09:07:56;;;;;;;5.20;2.60;;;;;;;31.96;31.55;95172.47;4947815;28;20217;-82
2023/07/15 09:10:22;;;;;;;3.25;2.95;;;;;;;32.47;30.82;95174.38;5015642;28;20220;-82
2023/07/15 09:12:52;;;;;;;4.93;3.15;;;;;;;32.95;29.12;95175.69;4947127;28;20210;-83
2023/07/15 09:15:17;;;;;;;3.92;2.92;;;;;;;33.20;29.76;95170.91;4941830;29;20561;-83
2023/07/15 09:17:54;;;;;;;3.80;3.40;;;;;;;33.72;29.83;95163.38;4949078;28;20213;-82
2023/07/15 09:20:20;;;;;;;4.35;2.50;;;;;;;33.74;28.81;95158.47;4931196;29;20188;-83
2023/07/15 09:22:55;;;;;;;3.78;2.67;;;;;;;34.24;28.55;95171.91;4962381;28;20193;-83
2023/07/15 09:25:22;;;;;;;6.05;2.97;;;;;;;33.32;28.81;95179.28;5014939;28;20273;-82
2023/07/15 09:27:47;;;;;;;4.70;2.92;;;;;;;33.38;29.44;95167.31;4938432;28;20214;-82
2023/07/15 09:30:13;;;;;;;4.57;2.72;;;;;;;33.28;28.87;95172.09;4946581;28;20193;-83
2023/07/15 09:32:38;;;;;;;4.93;2.97;;;;;;;32.45;30.07;95179.25;4947532;28;20221;-83
2023/07/15 09:35:04;;;;;;;4.95;2.72;;;;;;;31.78;30.58;95177.56;5015789;28;20224;-82
2023/07/15 09:37:31;;;;;;;4.22;3.03;;;;;;;31.46;31.04;95172.06;4946459;28;20210;-82
2023/07/15 09:40:01;;;;;;;4.95;2.80;;;;;;;31.25;31.91;95172.31;5023660;28;20196;-82
2023/07/15 09:42:29;;;;;;;4.00;2.85;;;;;;;30.87;33.42;95166.03;4948326;28;20182;-82
2023/07/15 09:44:55;;;;;;;6.03;3.25;;;;;;;30.98;32.47;95166.69;5012792;28;20185;-83
2023/07/15 09:47:20;;;;;;;3.20;2.85;;;;;;;30.87;32.49;95159.88;4946220;28;20202;-83
2023/07/15 09:49:46;;;;;;;3.90;2.80;;;;;;;31.10;31.83;95167.13;4934645;29;20216;-82
2023/07/15 09:52:13;;;;;;;6.28;2.97;;;;;;;31.15;31.74;95161.69;4948366;28;20227;-82
2023/07/15 09:54:43;;;;;;;4.57;2.75;;;;;;;31.44;31.43;95166.97;5015643;28;20665;-82
2023/07/15 09:57:11;;;;;;;3.40;2.80;;;;;;;31.82;31.24;95165.16;4941882;28;20202;-82
2023/07/15 09:59:45;;;;;;;5.75;3.25;;;;;;;31.74;30.73;95171.16;4959424;28;20185;-82
2023/07/15 10:02:17;;;;;;;3.63;2.88;;;;;;;32.19;31.45;95168.91;4931939;28;20197;-82
2023/07/15 10:04:45;;;;;;;3.10;2.80;;;;;;;32.54;30.76;95172.13;4944491;28;20725;-83
2023/07/15 10:07:12;;;;;;;4.97;2.88;;;;;;;32.71;30.58;95175.03;4946012;28;20209;-75
2023/07/15 10:09:37;;;;;;;3.47;2.85;;;;;;;32.69;29.59;95171.84;5019944;28;20202;-75
2023/07/15 10:12:04;;;;;;;3.42;2.83;;;;;;;33.01;29.77;95179.06;4943652;29;20573;-75
2023/07/15 10:14:31;;;;;;;3.08;2.78;;;;;;;33.52;28.83;95173.50;5014332;28;20212;-77
2023/07/15 10:17:15;;;;;;;3.80;2.63;;;;;;;33.42;28.58;95179.09;4953122;28;20579;-77
2023/07/15 10:19:50;;;;;;;3.45;3.03;;;;;;;33.35;29.02;95191.31;4931954;28;20196;-76
2023/07/15 10:22:18;;;;;;;3.63;2.78;;;;;;;32.76;29.67;95204.50;4956682;28;20189;-75
2023/07/15 10:24:53;;;;;;;3.38;2.88;;;;;;;32.41;29.30;95200.53;4955274;28;20190;-75
2023/07/15 10:27:18;;;;;;;4.75;3.50;;;;;;;32.03;29.64;95205.94;4943378;28;20209;-76
2023/07/15 10:29:43;;;;;;;5.57;2.95;;;;;;;31.79;30.28;95208.69;5020953;28;20244;-76
2023/07/15 10:32:09;;;;;;;3.05;2.80;;;;;;;31.85;31.75;95198.66;4932530;29;20276;-76
2023/07/15 10:34:51;;;;;;;3.53;2.90;;;;;;;31.94;32.01;95190.75;4938082;28;20182;-76
2023/07/15 10:37:18;;;;;;;6.93;3.30;;;;;;;32.11;31.46;95204.47;4948180;28;20237;-76
2023/07/15 10:39:45;;;;;;;5.25;3.28;;;;;;;31.75;32.66;95202.28;4950618;28;20193;-75
2023/07/15 10:42:13;;;;;;;5.07;3.55;;;;;;;31.62;32.20;95189.53;4955834;28;20189;-76
2023/07/15 10:44:44;;;;;;;4.18;3.78;;;;;;;31.67;32.33;95192.19;4942469;29;20190;-76
2023/07/15 10:47:10;;;;;;;4.75;3.20;;;;;;;31.26;31.72;95200.72;4921467;29;20290;-75
2023/07/15 10:49:36;;;;;;;3.22;2.92;;;;;;;31.61;31.09;95204.06;5029800;28;20208;-75
2023/07/15 10:52:03;;;;;;;5.50;3.22;;;;;;;31.74;31.32;95203.34;4945481;28;20216;-76
2023/07/15 10:54:30;;;;;;;4.03;3.10;;;;;;;32.03;30.66;95202.44;4935924;29;20559;-76
2023/07/15 10:56:56;;;;;;;7.57;3.47;;;;;;;31.98;30.33;95194.44;4931937;29;20212;-74
2023/07/15 10:59:33;;;;;;;4.93;3.30;;;;;;;32.27;29.87;95211.22;4952756;28;20189;-76
2023/07/15 11:01:59;;;;;;;5.32;3.33;;;;;;;32.07;30.13;95193.53;5016485;28;20658;-76
2023/07/15 11:04:24;;;;;;;3.22;2.92;;;;;;;32.22;30.19;95199.72;4945767;28;20193;-76
2023/07/15 11:06:50;;;;;;;4.53;3.05;;;;;;;32.64;29.73;95188.84;4942451;28;20229;-77
2023/07/15 11:09:21;;;;;;;4.75;3.10;;;;;;;32.37;29.72;95172.66;5014979;28;20212;-76
2023/07/15 11:11:48;;;;;;;5.70;3.13;;;;;;;31.81;30.28;95176.19;4941432;29;20616;-76
2023/07/15 11:14:19;;;;;;;5.32;2.92;;;;;;;31.50;30.69;95187.28;4931643;28;20740;-76
2023/07/15 11:16:45;;;;;;;3.45;2.85;;;;;;;32.09;29.79;95179.81;4943751;29;20201;-76
2023/07/15 11:19:17;;;;;;;3.08;2.78;;;;;;;32.28;29.48;95177.88;4946212;28;20667;-76
2023/07/15 11:21:43;;;;;;;3.35;2.90;;;;;;;32.31;29.57;95176.50;4945663;28;20194;-75
2023/07/15 11:24:11;;;;;;;4.28;3.10;;;;;;;32.55;29.28;95171.03;4940164;28;20193;-76
2023/07/15 11:26:36;;;;;;;4.28;3.10;;;;;;;33.15;28.91;95161.06;5028686;28;20216;-75
2023/07/15 11:29:12;;;;;;;3.65;3.10;;;;;;;33.73;27.08;95156.88;4947312;28;20623;-77
2023/07/15 11:31:40;;;;;;;3.60;3.30;;;;;;;33.48;27.10;95152.84;4947693;28;20191;-77